Geervliet — PCLI — position and weather

sailwx.info

Track history (hours):
 
Tides and Currents Weather Stations Pressure Air Temp Water Temp Dewpoint Dewpoint Depression Visibility Wind Speed Wind Dir Waves Ship Positions

Geervliet

Last reported at 2015-Aug-29 16:33 UTC. Time now 2015-Aug-29 16:59 UTC.
Position N 53°43' W 000°21'.

Length 86 m; draft 5.2 m.

Type: Cargo ship. MMSI: 246803000.

Date/timePositionNaut miles runAvg speedWind from/ knotsBaromVisibWave heightAir tempDewpointWater temp
2015-Aug-29 16:33N 53°43' W 000°21'7 7.1
2015-Aug-29 15:34N 53°39' W 000°11'8 8.5
2015-Aug-29 14:34N 53°35' E 000°02'9 9.2
2015-Aug-29 13:34N 53°33' E 000°17'5 5.2
2015-Aug-29 12:33N 53°35' E 000°25'0 0.0
2015-Aug-29 11:33N 53°35' E 000°25'0 0.0
2015-Aug-29 10:33N 53°35' E 000°25'0 0.0
2015-Aug-29 09:24N 53°35' E 000°25'0 0.0
2015-Aug-29 08:33N 53°35' E 000°25'0 0.0
2015-Aug-29 07:33N 53°35' E 000°25'0 0.0
2015-Aug-29 06:30N 53°35' E 000°25'3 3.6
2015-Aug-29 05:33N 53°33' E 000°29'11 7.5
2015-Aug-29 04:06N 53°25' E 000°42'4 7.8
2015-Aug-29 03:33N 53°23' E 000°48'9 7.9
2015-Aug-29 02:27N 53°19' E 001°01'15 7.9
2015-Aug-29 00:33N 53°08' E 001°18'9 8.6
2015-Aug-28 23:33N 53°02' E 001°28'8 8.3
2015-Aug-28 22:33N 52°56' E 001°37'7 7.0
2015-Aug-28 21:33N 52°51' E 001°46'7 6.5
2015-Aug-28 20:34N 52°46' E 001°53'5 5.3
2015-Aug-28 19:34N 52°41' E 001°55'6 6.1
2015-Aug-28 18:34N 52°35' E 001°54'7 7.0
2015-Aug-28 17:33N 52°28' E 001°53'3110.2
2015-Aug-28 14:30N 51°56' E 001°49'1111.6
2015-Aug-28 13:34N 51°46' E 001°49'1111.3
2015-Aug-28 12:33N 51°34' E 001°48'1111.6
2015-Aug-28 11:34N 51°23' E 001°44'1211.9
2015-Aug-28 10:34N 51°12' E 001°38'1010.1
2015-Aug-28 09:33N 51°02' E 001°35'1110.9
2015-Aug-28 08:31N 50°52' E 001°26'300 9.4
2015-Aug-27 00:33N 48°46' W 005°35'  
2015-Aug-24 02:33N 39°23' W 009°50'7 7.2
2015-Aug-24 01:33N 39°16' W 009°50'7 7.3
2015-Aug-24 00:33N 39°09' W 009°50'7 7.4
2015-Aug-23 23:33N 39°01' W 009°51'7 7.5
2015-Aug-23 22:33N 38°54' W 009°50'7 7.5
2015-Aug-23 21:33N 38°46' W 009°50'8 7.9
2015-Aug-23 20:33N 38°38' W 009°49'8 7.7
2015-Aug-23 19:33N 38°31' W 009°46'9 8.5
2015-Aug-23 18:33N 38°23' W 009°44'8 8.3
2015-Aug-23 17:33N 38°14' W 009°42'9 8.6
2015-Aug-23 16:33N 38°06' W 009°39'9 8.7
2015-Aug-23 15:32N 37°57' W 009°37'8 8.5
2015-Aug-23 14:33N 37°49' W 009°34'8 8.1
2015-Aug-23 13:33N 37°41' W 009°32'63 8.5
2015-Aug-23 06:09N 36°44' W 009°01'6 9.4
2015-Aug-23 05:33N 36°42' W 008°54'9 9.2
2015-Aug-23 04:33N 36°40' W 008°43'9 9.1
2015-Aug-23 03:33N 36°37' W 008°32'284 8.1
2015-Aug-21 16:16N 36°23' W 002°39'6 8.9
2015-Aug-21 15:33N 36°24' W 002°31'9 8.8
2015-Aug-21 14:33N 36°25' W 002°21'66 9.4
2015-Aug-21 07:33N 36°35' W 000°60'9 9.2
2015-Aug-21 06:33N 36°36' W 000°48'9 9.1
2015-Aug-21 05:31N 36°37' W 000°37'9 9.3
2015-Aug-21 04:32N 36°39' W 000°26'9 8.7
2015-Aug-21 03:32N 36°40' W 000°15'9 9.0
2015-Aug-21 02:31N 36°41' W 000°04'9 9.1
2015-Aug-21 01:33N 36°42' E 000°07'9 8.8
2015-Aug-21 00:33N 36°44' E 000°18'9 8.7
2015-Aug-20 23:33N 36°45' E 000°29'9 8.6
2015-Aug-20 22:33N 36°46' E 000°40'8 8.4
2015-Aug-20 21:33N 36°48' E 000°50'26 8.1
2015-Aug-20 18:22N 36°51' E 001°22'11 9.1
2015-Aug-20 17:08N 36°52' E 001°36'7 9.9
2015-Aug-20 16:25N 36°53' E 001°45'  
Track history (hours):
 
Tides and Currents Weather Stations Pressure Air Temp Water Temp Dewpoint Dewpoint Depression Visibility Wind Speed Wind Dir Waves Ship Positions

Geervliet

Last reported at 2015-Aug-29 16:33 UTC. Time now 2015-Aug-29 16:59 UTC.
Position N 53°43' W 000°21'.

Length 86 m; draft 5.2 m.

Type: Cargo ship. MMSI: 246803000.

Date/timePositionNaut miles runAvg speedWind from/ knotsBaromVisibWave heightAir tempDewpointWater temp
2015-Aug-29 16:33N 53°43' W 000°21'7 7.1
2015-Aug-29 15:34N 53°39' W 000°11'8 8.5
2015-Aug-29 14:34N 53°35' E 000°02'9 9.2
2015-Aug-29 13:34N 53°33' E 000°17'5 5.2
2015-Aug-29 12:33N 53°35' E 000°25'0 0.0
2015-Aug-29 11:33N 53°35' E 000°25'0 0.0
2015-Aug-29 10:33N 53°35' E 000°25'0 0.0
2015-Aug-29 09:24N 53°35' E 000°25'0 0.0
2015-Aug-29 08:33N 53°35' E 000°25'0 0.0
2015-Aug-29 07:33N 53°35' E 000°25'0 0.0
2015-Aug-29 06:30N 53°35' E 000°25'3 3.6
2015-Aug-29 05:33N 53°33' E 000°29'11 7.5
2015-Aug-29 04:06N 53°25' E 000°42'4 7.8
2015-Aug-29 03:33N 53°23' E 000°48'9 7.9
2015-Aug-29 02:27N 53°19' E 001°01'15 7.9
2015-Aug-29 00:33N 53°08' E 001°18'9 8.6
2015-Aug-28 23:33N 53°02' E 001°28'8 8.3
2015-Aug-28 22:33N 52°56' E 001°37'7 7.0
2015-Aug-28 21:33N 52°51' E 001°46'7 6.5
2015-Aug-28 20:34N 52°46' E 001°53'5 5.3
2015-Aug-28 19:34N 52°41' E 001°55'6 6.1
2015-Aug-28 18:34N 52°35' E 001°54'7 7.0
2015-Aug-28 17:33N 52°28' E 001°53'3110.2
2015-Aug-28 14:30N 51°56' E 001°49'1111.6
2015-Aug-28 13:34N 51°46' E 001°49'1111.3
2015-Aug-28 12:33N 51°34' E 001°48'1111.6
2015-Aug-28 11:34N 51°23' E 001°44'1211.9
2015-Aug-28 10:34N 51°12' E 001°38'1010.1
2015-Aug-28 09:33N 51°02' E 001°35'1110.9
2015-Aug-28 08:31N 50°52' E 001°26'300 9.4
2015-Aug-27 00:33N 48°46' W 005°35'  
2015-Aug-24 02:33N 39°23' W 009°50'7 7.2
2015-Aug-24 01:33N 39°16' W 009°50'7 7.3
2015-Aug-24 00:33N 39°09' W 009°50'7 7.4
2015-Aug-23 23:33N 39°01' W 009°51'7 7.5
2015-Aug-23 22:33N 38°54' W 009°50'7 7.5
2015-Aug-23 21:33N 38°46' W 009°50'8 7.9
2015-Aug-23 20:33N 38°38' W 009°49'8 7.7
2015-Aug-23 19:33N 38°31' W 009°46'9 8.5
2015-Aug-23 18:33N 38°23' W 009°44'8 8.3
2015-Aug-23 17:33N 38°14' W 009°42'9 8.6
2015-Aug-23 16:33N 38°06' W 009°39'9 8.7
2015-Aug-23 15:32N 37°57' W 009°37'8 8.5
2015-Aug-23 14:33N 37°49' W 009°34'8 8.1
2015-Aug-23 13:33N 37°41' W 009°32'63 8.5
2015-Aug-23 06:09N 36°44' W 009°01'6 9.4
2015-Aug-23 05:33N 36°42' W 008°54'9 9.2
2015-Aug-23 04:33N 36°40' W 008°43'9 9.1
2015-Aug-23 03:33N 36°37' W 008°32'284 8.1
2015-Aug-21 16:16N 36°23' W 002°39'6 8.9
2015-Aug-21 15:33N 36°24' W 002°31'9 8.8
2015-Aug-21 14:33N 36°25' W 002°21'66 9.4
2015-Aug-21 07:33N 36°35' W 000°60'9 9.2
2015-Aug-21 06:33N 36°36' W 000°48'9 9.1
2015-Aug-21 05:31N 36°37' W 000°37'9 9.3
2015-Aug-21 04:32N 36°39' W 000°26'9 8.7
2015-Aug-21 03:32N 36°40' W 000°15'9 9.0
2015-Aug-21 02:31N 36°41' W 000°04'9 9.1
2015-Aug-21 01:33N 36°42' E 000°07'9 8.8
2015-Aug-21 00:33N 36°44' E 000°18'9 8.7
2015-Aug-20 23:33N 36°45' E 000°29'9 8.6
2015-Aug-20 22:33N 36°46' E 000°40'8 8.4
2015-Aug-20 21:33N 36°48' E 000°50'26 8.1
2015-Aug-20 18:22N 36°51' E 001°22'11 9.1
2015-Aug-20 17:08N 36°52' E 001°36'7 9.9
2015-Aug-20 16:25N 36°53' E 001°45'  

Dump ship's entire track history